sensor_id;sensor_type;location;lat;lon;timestamp;pressure;altitude;pressure_sealevel;temperature;humidity
71795;BME280;59641;45.188;5.712;2022-08-19T00:00:16;98935.84;;;22.35;67.71
71795;BME280;59641;45.188;5.712;2022-08-19T00:02:42;98924.13;;;22.35;67.24
71795;BME280;59641;45.188;5.712;2022-08-19T00:05:08;98932.63;;;22.33;66.65
71795;BME280;59641;45.188;5.712;2022-08-19T00:07:36;98929.09;;;22.32;66.91
71795;BME280;59641;45.188;5.712;2022-08-19T00:10:04;98930.19;;;22.31;65.91
71795;BME280;59641;45.188;5.712;2022-08-19T00:12:30;98920.50;;;22.25;65.76
71795;BME280;59641;45.188;5.712;2022-08-19T00:14:55;98918.28;;;22.27;66.48
71795;BME280;59641;45.188;5.712;2022-08-19T00:17:21;98922.09;;;22.26;66.54
71795;BME280;59641;45.188;5.712;2022-08-19T00:19:46;98921.59;;;22.24;66.17
71795;BME280;59641;45.188;5.712;2022-08-19T00:22:12;98920.78;;;22.24;66.06
71795;BME280;59641;45.188;5.712;2022-08-19T00:24:37;98927.06;;;22.24;66.22
71795;BME280;59641;45.188;5.712;2022-08-19T00:27:04;98931.94;;;22.27;66.19
71795;BME280;59641;45.188;5.712;2022-08-19T00:29:29;98938.72;;;22.30;66.05
71795;BME280;59641;45.188;5.712;2022-08-19T00:31:56;98941.13;;;22.31;66.13
71795;BME280;59641;45.188;5.712;2022-08-19T00:34:24;98936.97;;;22.34;66.24
71795;BME280;59641;45.188;5.712;2022-08-19T00:36:50;98935.53;;;22.37;66.47
71795;BME280;59641;45.188;5.712;2022-08-19T00:39:16;98936.03;;;22.39;66.27
71795;BME280;59641;45.188;5.712;2022-08-19T00:41:43;98934.94;;;22.40;66.17
71795;BME280;59641;45.188;5.712;2022-08-19T00:44:15;98948.78;;;22.43;66.31
71795;BME280;59641;45.188;5.712;2022-08-19T00:46:43;98950.09;;;22.46;65.99
71795;BME280;59641;45.188;5.712;2022-08-19T00:49:12;98936.13;;;22.47;66.24
71795;BME280;59641;45.188;5.712;2022-08-19T00:51:41;98937.72;;;22.48;65.50
71795;BME280;59641;45.188;5.712;2022-08-19T00:54:08;98935.81;;;22.49;65.31
71795;BME280;59641;45.188;5.712;2022-08-19T00:56:35;98934.19;;;22.48;65.53
71795;BME280;59641;45.188;5.712;2022-08-19T00:59:03;98934.19;;;22.48;65.72
71795;BME280;59641;45.188;5.712;2022-08-19T01:01:38;98936.91;;;22.48;65.64
71795;BME280;59641;45.188;5.712;2022-08-19T01:04:05;98923.25;;;22.48;65.42
71795;BME280;59641;45.188;5.712;2022-08-19T01:06:31;98926.78;;;22.48;65.28
71795;BME280;59641;45.188;5.712;2022-08-19T01:08:58;98932.88;;;22.45;65.41
71795;BME280;59641;45.188;5.712;2022-08-19T01:11:24;98935.63;;;22.45;65.58
71795;BME280;59641;45.188;5.712;2022-08-19T01:13:50;98932.72;;;22.42;65.96
71795;BME280;59641;45.188;5.712;2022-08-19T01:16:20;98933.81;;;22.41;65.82
71795;BME280;59641;45.188;5.712;2022-08-19T01:18:46;98925.91;;;22.39;65.43
71795;BME280;59641;45.188;5.712;2022-08-19T01:21:43;98917.81;;;22.34;65.30
71795;BME280;59641;45.188;5.712;2022-08-19T01:24:11;98916.72;;;22.35;65.99
71795;BME280;59641;45.188;5.712;2022-08-19T01:26:42;98918.03;;;22.38;66.08
71795;BME280;59641;45.188;5.712;2022-08-19T01:29:08;98911.56;;;22.33;65.53
71795;BME280;59641;45.188;5.712;2022-08-19T01:31:35;98910.75;;;22.33;66.08
71795;BME280;59641;45.188;5.712;2022-08-19T01:34:02;98916.53;;;22.31;65.44
71795;BME280;59641;45.188;5.712;2022-08-19T01:38:58;98905.59;;;22.31;65.13
71795;BME280;59641;45.188;5.712;2022-08-19T01:41:24;98905.78;;;22.35;65.53
71795;BME280;59641;45.188;5.712;2022-08-19T01:43:51;98915.94;;;22.35;64.97
71795;BME280;59641;45.188;5.712;2022-08-19T01:46:17;98911.75;;;22.37;65.34
71795;BME280;59641;45.188;5.712;2022-08-19T01:48:44;98916.91;;;22.39;65.13
71795;BME280;59641;45.188;5.712;2022-08-19T01:51:11;98915.81;;;22.40;64.90
71795;BME280;59641;45.188;5.712;2022-08-19T01:53:37;98922.38;;;22.39;65.02
71795;BME280;59641;45.188;5.712;2022-08-19T01:56:04;98929.25;;;22.36;64.88
71795;BME280;59641;45.188;5.712;2022-08-19T01:58:35;98912.47;;;22.29;64.64
71795;BME280;59641;45.188;5.712;2022-08-19T02:01:03;98921.81;;;22.28;64.71
71795;BME280;59641;45.188;5.712;2022-08-19T02:03:29;98906.50;;;22.27;65.40
71795;BME280;59641;45.188;5.712;2022-08-19T02:05:58;98915.63;;;22.22;65.11
71795;BME280;59641;45.188;5.712;2022-08-19T02:08:29;98923.34;;;22.20;65.19
71795;BME280;59641;45.188;5.712;2022-08-19T02:10:55;98915.72;;;22.17;65.51
71795;BME280;59641;45.188;5.712;2022-08-19T02:13:21;98923.41;;;22.15;65.46
71795;BME280;59641;45.188;5.712;2022-08-19T02:15:47;98922.09;;;22.12;65.55
71795;BME280;59641;45.188;5.712;2022-08-19T02:18:12;98922.09;;;22.12;65.96
71795;BME280;59641;45.188;5.712;2022-08-19T02:20:39;98923.72;;;22.13;66.07
71795;BME280;59641;45.188;5.712;2022-08-19T02:23:05;98915.66;;;22.08;65.91
71795;BME280;59641;45.188;5.712;2022-08-19T02:25:31;98911.50;;;22.11;65.99
71795;BME280;59641;45.188;5.712;2022-08-19T02:27:57;98915.03;;;22.11;65.82
71795;BME280;59641;45.188;5.712;2022-08-19T02:30:22;98915.53;;;22.13;66.33
71795;BME280;59641;45.188;5.712;2022-08-19T02:32:47;98910.88;;;22.14;65.88
71795;BME280;59641;45.188;5.712;2022-08-19T02:35:14;98916.34;;;22.14;66.00
71795;BME280;59641;45.188;5.712;2022-08-19T02:37:40;98923.09;;;22.17;65.90
71795;BME280;59641;45.188;5.712;2022-08-19T02:40:25;98933.41;;;22.20;66.07
71795;BME280;59641;45.188;5.712;2022-08-19T02:42:50;98940.56;;;22.21;66.18
71795;BME280;59641;45.188;5.712;2022-08-19T02:45:16;98939.41;;;22.22;66.03
71795;BME280;59641;45.188;5.712;2022-08-19T02:47:41;98935.59;;;22.23;66.33
71795;BME280;59641;45.188;5.712;2022-08-19T02:50:08;98938.00;;;22.24;66.19
71795;BME280;59641;45.188;5.712;2022-08-19T02:52:33;98943.16;;;22.26;66.24
71795;BME280;59641;45.188;5.712;2022-08-19T02:54:59;98940.72;;;22.24;66.71
71795;BME280;59641;45.188;5.712;2022-08-19T02:57:25;98941.44;;;22.16;67.39
71795;BME280;59641;45.188;5.712;2022-08-19T02:59:51;98947.69;;;22.17;67.13
71795;BME280;59641;45.188;5.712;2022-08-19T03:02:17;98949.13;;;22.14;67.19
71795;BME280;59641;45.188;5.712;2022-08-19T03:04:42;98955.50;;;22.09;67.74
71795;BME280;59641;45.188;5.712;2022-08-19T03:07:08;98946.91;;;22.02;68.74
71795;BME280;59641;45.188;5.712;2022-08-19T03:09:37;98951.38;;;21.98;67.97
71795;BME280;59641;45.188;5.712;2022-08-19T03:12:03;98944.13;;;21.94;68.60
71795;BME280;59641;45.188;5.712;2022-08-19T03:14:33;98952.09;;;21.90;68.42
71795;BME280;59641;45.188;5.712;2022-08-19T03:16:59;98950.50;;;21.89;68.15
71795;BME280;59641;45.188;5.712;2022-08-19T03:19:25;98947.53;;;21.85;69.21
71795;BME280;59641;45.188;5.712;2022-08-19T03:21:51;98953.50;;;21.87;68.54
71795;BME280;59641;45.188;5.712;2022-08-19T03:24:18;98948.34;;;21.86;68.62
71795;BME280;59641;45.188;5.712;2022-08-19T03:26:47;98960.41;;;21.85;68.58
71795;BME280;59641;45.188;5.712;2022-08-19T03:29:13;98960.78;;;21.78;69.01
71795;BME280;59641;45.188;5.712;2022-08-19T03:31:39;98965.63;;;21.81;68.64
71795;BME280;59641;45.188;5.712;2022-08-19T03:34:06;98953.72;;;21.77;68.36
71795;BME280;59641;45.188;5.712;2022-08-19T03:36:32;98965.75;;;21.76;68.71
71795;BME280;59641;45.188;5.712;2022-08-19T03:38:59;98968.47;;;21.76;67.90
71795;BME280;59641;45.188;5.712;2022-08-19T03:41:31;98973.94;;;21.76;67.96
71795;BME280;59641;45.188;5.712;2022-08-19T03:43:57;98976.66;;;21.76;67.65
71795;BME280;59641;45.188;5.712;2022-08-19T03:46:30;98982.94;;;21.77;67.93
71795;BME280;59641;45.188;5.712;2022-08-19T03:48:58;98986.38;;;21.68;68.31
71795;BME280;59641;45.188;5.712;2022-08-19T03:53:52;98977.91;;;21.70;67.87
71795;BME280;59641;45.188;5.712;2022-08-19T03:56:18;98984.44;;;21.69;66.62
71795;BME280;59641;45.188;5.712;2022-08-19T03:58:44;98986.38;;;21.68;66.72
71795;BME280;59641;45.188;5.712;2022-08-19T04:01:13;98997.59;;;21.67;66.72
71795;BME280;59641;45.188;5.712;2022-08-19T04:03:39;98988.00;;;21.69;66.39
71795;BME280;59641;45.188;5.712;2022-08-19T04:06:10;99004.41;;;21.69;66.48
71795;BME280;59641;45.188;5.712;2022-08-19T04:08:36;99007.41;;;21.68;66.87
71795;BME280;59641;45.188;5.712;2022-08-19T04:11:05;99008.22;;;21.68;66.67
71795;BME280;59641;45.188;5.712;2022-08-19T04:13:31;99011.75;;;21.69;66.62
71795;BME280;59641;45.188;5.712;2022-08-19T04:15:56;99009.84;;;21.69;66.92
71795;BME280;59641;45.188;5.712;2022-08-19T04:18:22;99010.34;;;21.72;66.50
71795;BME280;59641;45.188;5.712;2022-08-19T04:20:47;99014.09;;;21.76;66.45
71795;BME280;59641;45.188;5.712;2022-08-19T04:23:14;99016.53;;;21.77;66.44
71795;BME280;59641;45.188;5.712;2022-08-19T04:25:41;99021.38;;;21.80;66.15
71795;BME280;59641;45.188;5.712;2022-08-19T04:28:08;99032.03;;;21.82;66.38
71795;BME280;59641;45.188;5.712;2022-08-19T04:30:42;99030.00;;;21.87;65.96
71795;BME280;59641;45.188;5.712;2022-08-19T04:33:09;99031.31;;;21.90;65.85
71795;BME280;59641;45.188;5.712;2022-08-19T04:35:45;99030.50;;;21.89;65.73
71795;BME280;59641;45.188;5.712;2022-08-19T04:38:12;99028.56;;;21.90;65.68
71795;BME280;59641;45.188;5.712;2022-08-19T04:40:46;99028.88;;;21.88;65.76
71795;BME280;59641;45.188;5.712;2022-08-19T04:43:32;99031.31;;;21.90;65.91
71795;BME280;59641;45.188;5.712;2022-08-19T04:45:58;99034.03;;;21.90;65.86
71795;BME280;59641;45.188;5.712;2022-08-19T04:48:29;99038.88;;;21.93;65.62
71795;BME280;59641;45.188;5.712;2022-08-19T04:50:56;99049.72;;;21.98;65.47
71795;BME280;59641;45.188;5.712;2022-08-19T04:53:27;99047.81;;;21.99;65.19
71795;BME280;59641;45.188;5.712;2022-08-19T04:55:57;99044.25;;;21.98;65.64
71795;BME280;59641;45.188;5.712;2022-08-19T04:58:25;99054.69;;;21.96;65.48
71795;BME280;59641;45.188;5.712;2022-08-19T05:00:52;99046.69;;;22.00;65.48
71795;BME280;59641;45.188;5.712;2022-08-19T05:03:18;99057.31;;;22.01;65.61
71795;BME280;59641;45.188;5.712;2022-08-19T05:05:45;99068.25;;;22.01;65.59
71795;BME280;59641;45.188;5.712;2022-08-19T05:08:14;99069.84;;;22.02;65.70
71795;BME280;59641;45.188;5.712;2022-08-19T05:10:43;99075.03;;;22.04;65.97
71795;BME280;59641;45.188;5.712;2022-08-19T05:13:09;99078.56;;;22.04;66.01
71795;BME280;59641;45.188;5.712;2022-08-19T05:15:35;99080.16;;;22.05;66.34
71795;BME280;59641;45.188;5.712;2022-08-19T05:18:01;99075.31;;;22.02;66.40
71795;BME280;59641;45.188;5.712;2022-08-19T05:20:45;99087.38;;;22.01;66.43
71795;BME280;59641;45.188;5.712;2022-08-19T05:23:29;99086.84;;;21.99;66.46
71795;BME280;59641;45.188;5.712;2022-08-19T05:25:55;99091.00;;;21.97;66.53
71795;BME280;59641;45.188;5.712;2022-08-19T05:28:20;99103.03;;;21.96;66.57
71795;BME280;59641;45.188;5.712;2022-08-19T05:30:46;99095.25;;;21.89;66.90
71795;BME280;59641;45.188;5.712;2022-08-19T05:33:13;99101.91;;;21.83;67.00
71795;BME280;59641;45.188;5.712;2022-08-19T05:35:39;99098.13;;;21.79;67.29
71795;BME280;59641;45.188;5.712;2022-08-19T05:38:07;99110.88;;;21.69;67.41
71795;BME280;59641;45.188;5.712;2022-08-19T05:40:35;99102.28;;;21.76;67.39
71795;BME280;59641;45.188;5.712;2022-08-19T05:43:04;99101.78;;;21.74;67.54
71795;BME280;59641;45.188;5.712;2022-08-19T05:45:30;99102.00;;;21.78;67.34
71795;BME280;59641;45.188;5.712;2022-08-19T05:47:56;99105.81;;;21.77;67.06
71795;BME280;59641;45.188;5.712;2022-08-19T05:50:21;99104.72;;;21.78;67.16
71795;BME280;59641;45.188;5.712;2022-08-19T05:52:47;99109.06;;;21.79;67.21
71795;BME280;59641;45.188;5.712;2022-08-19T05:55:13;99104.13;;;21.81;67.24
71795;BME280;59641;45.188;5.712;2022-08-19T05:57:39;99113.13;;;21.81;66.83
71795;BME280;59641;45.188;5.712;2022-08-19T06:00:06;99114.75;;;21.82;66.59
71795;BME280;59641;45.188;5.712;2022-08-19T06:02:36;99114.53;;;21.79;67.12
71795;BME280;59641;45.188;5.712;2022-08-19T06:05:03;99120.50;;;21.81;67.01
71795;BME280;59641;45.188;5.712;2022-08-19T06:07:29;99126.28;;;21.79;67.09
71795;BME280;59641;45.188;5.712;2022-08-19T06:09:55;99126.28;;;21.79;67.11
71795;BME280;59641;45.188;5.712;2022-08-19T06:12:20;99126.06;;;21.76;67.33
71795;BME280;59641;45.188;5.712;2022-08-19T06:14:51;99130.91;;;21.79;67.42
71795;BME280;59641;45.188;5.712;2022-08-19T06:17:19;99129.81;;;21.80;67.51
71795;BME280;59641;45.188;5.712;2022-08-19T06:19:44;99128.19;;;21.79;67.56
71795;BME280;59641;45.188;5.712;2022-08-19T06:22:10;99137.22;;;21.79;67.08
71795;BME280;59641;45.188;5.712;2022-08-19T06:24:38;99149.84;;;21.75;67.55
71795;BME280;59641;45.188;5.712;2022-08-19T06:27:04;99150.63;;;21.76;67.45
71795;BME280;59641;45.188;5.712;2022-08-19T06:29:30;99152.84;;;21.74;67.87
71795;BME280;59641;45.188;5.712;2022-08-19T06:31:58;99163.78;;;21.74;67.88
71795;BME280;59641;45.188;5.712;2022-08-19T06:34:26;99167.03;;;21.76;67.94
71795;BME280;59641;45.188;5.712;2022-08-19T06:36:53;99168.63;;;21.77;67.78
71795;BME280;59641;45.188;5.712;2022-08-19T06:39:23;99169.75;;;21.76;67.33
71795;BME280;59641;45.188;5.712;2022-08-19T06:41:52;99168.94;;;21.75;67.32
71795;BME280;59641;45.188;5.712;2022-08-19T06:44:20;99164.81;;;21.78;67.56
71795;BME280;59641;45.188;5.712;2022-08-19T06:46:46;99165.09;;;21.76;67.41
71795;BME280;59641;45.188;5.712;2022-08-19T06:49:14;99163.16;;;21.77;67.67
71795;BME280;59641;45.188;5.712;2022-08-19T06:51:41;99173.00;;;21.78;67.52
71795;BME280;59641;45.188;5.712;2022-08-19T06:54:07;99167.25;;;21.79;67.47
71795;BME280;59641;45.188;5.712;2022-08-19T06:56:33;99175.13;;;21.81;67.44
71795;BME280;59641;45.188;5.712;2022-08-19T06:59:08;99183.84;;;21.83;67.13
71795;BME280;59641;45.188;5.712;2022-08-19T07:01:36;99178.28;;;21.88;67.14
71795;BME280;59641;45.188;5.712;2022-08-19T07:04:06;99171.13;;;21.92;66.77
71795;BME280;59641;45.188;5.712;2022-08-19T07:06:32;99179.03;;;21.94;67.81
71795;BME280;59641;45.188;5.712;2022-08-19T07:08:58;99189.03;;;21.98;66.96
71795;BME280;59641;45.188;5.712;2022-08-19T07:11:23;99191.47;;;22.00;67.17
71795;BME280;59641;45.188;5.712;2022-08-19T07:13:49;99192.00;;;22.02;67.69
71795;BME280;59641;45.188;5.712;2022-08-19T07:16:17;99183.19;;;22.05;67.90
71795;BME280;59641;45.188;5.712;2022-08-19T07:18:45;99202.22;;;22.10;67.59
71795;BME280;59641;45.188;5.712;2022-08-19T07:21:20;99197.78;;;22.14;67.75
71795;BME280;59641;45.188;5.712;2022-08-19T07:23:48;99209.22;;;22.16;67.86
71795;BME280;59641;45.188;5.712;2022-08-19T07:26:17;99218.22;;;22.17;67.97
71795;BME280;59641;45.188;5.712;2022-08-19T07:28:45;99206.69;;;22.20;67.32
71795;BME280;59641;45.188;5.712;2022-08-19T07:31:12;99205.81;;;22.24;67.44
71795;BME280;59641;45.188;5.712;2022-08-19T07:33:39;99213.72;;;22.26;66.51
71795;BME280;59641;45.188;5.712;2022-08-19T07:36:07;99217.50;;;22.30;67.16
71795;BME280;59641;45.188;5.712;2022-08-19T07:38:37;99207.88;;;22.32;67.19
71795;BME280;59641;45.188;5.712;2022-08-19T07:41:04;99199.69;;;22.32;66.30
71795;BME280;59641;45.188;5.712;2022-08-19T07:43:30;99199.88;;;22.36;65.88
71795;BME280;59641;45.188;5.712;2022-08-19T07:45:55;99199.78;;;22.41;65.96
71795;BME280;59641;45.188;5.712;2022-08-19T07:48:24;99213.34;;;22.46;66.07
71795;BME280;59641;45.188;5.712;2022-08-19T07:50:55;99213.06;;;22.48;66.58
71795;BME280;59641;45.188;5.712;2022-08-19T07:53:21;99223.09;;;22.52;66.88
71795;BME280;59641;45.188;5.712;2022-08-19T07:55:47;99221.66;;;22.55;66.94
71795;BME280;59641;45.188;5.712;2022-08-19T07:58:17;99215.59;;;22.58;66.83
71795;BME280;59641;45.188;5.712;2022-08-19T08:00:44;99222.06;;;22.62;66.98
71795;BME280;59641;45.188;5.712;2022-08-19T08:03:11;99216.50;;;22.67;66.77
71795;BME280;59641;45.188;5.712;2022-08-19T08:05:37;99205.78;;;22.71;66.05
71795;BME280;59641;45.188;5.712;2022-08-19T08:08:20;99211.44;;;22.74;66.63
71795;BME280;59641;45.188;5.712;2022-08-19T08:11:05;99212.47;;;22.79;65.51
71795;BME280;59641;45.188;5.712;2022-08-19T08:13:31;99218.13;;;22.82;65.66
71795;BME280;59641;45.188;5.712;2022-08-19T08:15:58;99213.16;;;22.84;66.40
71795;BME280;59641;45.188;5.712;2022-08-19T08:18:24;99222.69;;;22.87;66.03
71795;BME280;59641;45.188;5.712;2022-08-19T08:20:50;99222.91;;;22.90;66.29
71795;BME280;59641;45.188;5.712;2022-08-19T08:23:15;99221.78;;;22.91;66.96
71795;BME280;59641;45.188;5.712;2022-08-19T08:25:52;99225.22;;;22.97;65.84
71795;BME280;59641;45.188;5.712;2022-08-19T08:28:18;99225.22;;;22.97;64.61
71795;BME280;59641;45.188;5.712;2022-08-19T08:30:46;99225.53;;;22.95;64.33
71795;BME280;59641;45.188;5.712;2022-08-19T08:33:13;99224.22;;;22.93;63.56
71795;BME280;59641;45.188;5.712;2022-08-19T08:35:40;99231.50;;;22.97;63.65
71795;BME280;59641;45.188;5.712;2022-08-19T08:38:07;99229.00;;;23.01;64.10
71795;BME280;59641;45.188;5.712;2022-08-19T08:45:38;99236.00;;;23.07;64.00
71795;BME280;59641;45.188;5.712;2022-08-19T08:48:22;99234.34;;;23.06;63.51
71795;BME280;59641;45.188;5.712;2022-08-19T08:50:50;99239.22;;;23.09;63.56
71795;BME280;59641;45.188;5.712;2022-08-19T08:53:20;99231.50;;;23.11;63.09
71795;BME280;59641;45.188;5.712;2022-08-19T08:55:46;99230.09;;;23.14;63.04
71795;BME280;59641;45.188;5.712;2022-08-19T08:58:15;99230.09;;;23.14;62.63
71795;BME280;59641;45.188;5.712;2022-08-19T09:00:47;99241.53;;;23.16;63.01
71795;BME280;59641;45.188;5.712;2022-08-19T09:03:25;99243.69;;;23.19;62.94
71795;BME280;59641;45.188;5.712;2022-08-19T09:06:09;99247.41;;;23.23;63.21
71795;BME280;59641;45.188;5.712;2022-08-19T09:11:23;99256.53;;;23.32;63.00
71795;BME280;59641;45.188;5.712;2022-08-19T09:14:52;99244.75;;;23.32;62.55
71795;BME280;59641;45.188;5.712;2022-08-19T09:16:52;99249.22;;;23.28;61.74
71795;BME280;59641;45.188;5.712;2022-08-19T09:19:18;99254.41;;;23.29;62.44
71795;BME280;59641;45.188;5.712;2022-08-19T09:21:43;99261.00;;;23.28;62.21
71795;BME280;59641;45.188;5.712;2022-08-19T09:24:10;99263.94;;;23.32;62.59
71795;BME280;59641;45.188;5.712;2022-08-19T09:26:35;99264.44;;;23.34;62.09
71795;BME280;59641;45.188;5.712;2022-08-19T09:29:01;99268.59;;;23.31;61.63
71795;BME280;59641;45.188;5.712;2022-08-19T09:31:30;99271.97;;;23.28;61.98
71795;BME280;59641;45.188;5.712;2022-08-19T09:33:58;99265.66;;;23.28;62.05
71795;BME280;59641;45.188;5.712;2022-08-19T09:36:26;99269.22;;;23.28;61.70
71795;BME280;59641;45.188;5.712;2022-08-19T09:38:54;99265.34;;;23.29;61.78
71795;BME280;59641;45.188;5.712;2022-08-19T09:41:22;99269.22;;;23.28;61.74
71795;BME280;59641;45.188;5.712;2022-08-19T09:43:50;99274.06;;;23.31;61.88
71795;BME280;59641;45.188;5.712;2022-08-19T09:46:21;99270.53;;;23.31;61.94
71795;BME280;59641;45.188;5.712;2022-08-19T09:48:48;99274.88;;;23.32;61.80
71795;BME280;59641;45.188;5.712;2022-08-19T09:51:22;99276.19;;;23.34;61.81
71795;BME280;59641;45.188;5.712;2022-08-19T09:53:49;99274.59;;;23.33;61.90
71795;BME280;59641;45.188;5.712;2022-08-19T09:56:17;99279.72;;;23.35;61.87
71795;BME280;59641;45.188;5.712;2022-08-19T09:58:42;99284.41;;;23.34;61.62
71795;BME280;59641;45.188;5.712;2022-08-19T10:01:08;99282.78;;;23.33;61.43
71795;BME280;59641;45.188;5.712;2022-08-19T10:03:35;99284.41;;;23.34;61.22
71795;BME280;59641;45.188;5.712;2022-08-19T10:06:03;99289.59;;;23.36;61.49
71795;BME280;59641;45.188;5.712;2022-08-19T10:08:32;99288.44;;;23.37;61.35
71795;BME280;59641;45.188;5.712;2022-08-19T10:10:58;99279.81;;;23.44;61.18
71795;BME280;59641;45.188;5.712;2022-08-19T10:13:26;99282.28;;;23.45;61.17
71795;BME280;59641;45.188;5.712;2022-08-19T10:15:54;99280.63;;;23.44;61.94
71795;BME280;59641;45.188;5.712;2022-08-19T10:18:21;99283.06;;;23.46;61.66
71795;BME280;59641;45.188;5.712;2022-08-19T10:20:48;99282.06;;;23.42;62.01
71795;BME280;59641;45.188;5.712;2022-08-19T10:23:15;99283.75;;;23.51;62.36
71795;BME280;59641;45.188;5.712;2022-08-19T10:25:41;99282.34;;;23.54;62.54
71795;BME280;59641;45.188;5.712;2022-08-19T10:28:06;99278.78;;;23.53;62.17
71795;BME280;59641;45.188;5.712;2022-08-19T10:30:32;99289.44;;;23.55;62.27
71795;BME280;59641;45.188;5.712;2022-08-19T10:32:58;99288.13;;;23.52;61.83
71795;BME280;59641;45.188;5.712;2022-08-19T10:35:26;99278.78;;;23.53;62.88
71795;BME280;59641;45.188;5.712;2022-08-19T10:37:54;99283.13;;;23.54;62.99
71795;BME280;59641;45.188;5.712;2022-08-19T10:40:26;99291.19;;;23.51;63.00
71795;BME280;59641;45.188;5.712;2022-08-19T10:42:52;99296.03;;;23.54;62.26
71795;BME280;59641;45.188;5.712;2022-08-19T10:45:18;99303.16;;;23.55;62.39
71795;BME280;59641;45.188;5.712;2022-08-19T10:47:47;99297.97;;;23.53;62.34
71795;BME280;59641;45.188;5.712;2022-08-19T10:50:12;99302.00;;;23.56;62.52
71795;BME280;59641;45.188;5.712;2022-08-19T10:52:56;99304.25;;;23.54;63.23
71795;BME280;59641;45.188;5.712;2022-08-19T10:55:24;99309.44;;;23.55;63.20
71795;BME280;59641;45.188;5.712;2022-08-19T10:58:14;99311.94;;;23.52;63.15
71795;BME280;59641;45.188;5.712;2022-08-19T11:00:40;99316.44;;;23.48;63.38
71795;BME280;59641;45.188;5.712;2022-08-19T11:03:07;99319.25;;;23.43;63.21
71795;BME280;59641;45.188;5.712;2022-08-19T11:05:32;99305.91;;;23.41;63.54
71795;BME280;59641;45.188;5.712;2022-08-19T11:07:59;99307.00;;;23.40;63.76
71795;BME280;59641;45.188;5.712;2022-08-19T11:10:24;99315.44;;;23.44;64.03
71795;BME280;59641;45.188;5.712;2022-08-19T11:12:49;99311.56;;;23.45;63.74
71795;BME280;59641;45.188;5.712;2022-08-19T11:15:20;99318.66;;;23.46;63.47
71795;BME280;59641;45.188;5.712;2022-08-19T11:17:46;99315.59;;;23.47;63.10
71795;BME280;59641;45.188;5.712;2022-08-19T11:20:13;99319.19;;;23.48;63.24
71795;BME280;59641;45.188;5.712;2022-08-19T11:22:40;99324.66;;;23.48;63.13
71795;BME280;59641;45.188;5.712;2022-08-19T11:25:06;99316.91;;;23.50;63.02
71795;BME280;59641;45.188;5.712;2022-08-19T11:27:32;99312.56;;;23.49;62.83
71795;BME280;59641;45.188;5.712;2022-08-19T11:29:59;99317.44;;;23.52;63.16
71795;BME280;59641;45.188;5.712;2022-08-19T11:32:24;99314.69;;;23.52;63.66
71795;BME280;59641;45.188;5.712;2022-08-19T11:34:50;99316.34;;;23.53;63.63
71795;BME280;59641;45.188;5.712;2022-08-19T11:37:15;99324.03;;;23.51;63.20
71795;BME280;59641;45.188;5.712;2022-08-19T11:39:41;99326.78;;;23.51;63.36
71795;BME280;59641;45.188;5.712;2022-08-19T11:42:07;99325.06;;;23.55;63.33
71795;BME280;59641;45.188;5.712;2022-08-19T11:44:53;99328.19;;;23.62;62.61
71795;BME280;59641;45.188;5.712;2022-08-19T11:47:19;99320.38;;;23.69;61.97
71795;BME280;59641;45.188;5.712;2022-08-19T11:49:46;99317.53;;;23.74;61.73
71795;BME280;59641;45.188;5.712;2022-08-19T11:52:11;99323.53;;;23.76;60.90
71795;BME280;59641;45.188;5.712;2022-08-19T11:54:37;99313.03;;;23.78;60.43
71795;BME280;59641;45.188;5.712;2022-08-19T11:57:03;99312.31;;;23.87;61.21
71795;BME280;59641;45.188;5.712;2022-08-19T11:59:29;99319.41;;;23.88;60.50
71795;BME280;59641;45.188;5.712;2022-08-19T12:01:56;99312.72;;;23.94;60.34
71795;BME280;59641;45.188;5.712;2022-08-19T12:04:22;99313.69;;;23.98;61.02
71795;BME280;59641;45.188;5.712;2022-08-19T12:06:48;99319.25;;;24.07;61.16
71795;BME280;59641;45.188;5.712;2022-08-19T12:09:15;99313.34;;;24.13;60.89
71795;BME280;59641;45.188;5.712;2022-08-19T12:11:41;99315.97;;;24.18;60.29
71795;BME280;59641;45.188;5.712;2022-08-19T12:14:10;99310.03;;;24.25;60.33
71795;BME280;59641;45.188;5.712;2022-08-19T12:16:37;99315.91;;;24.32;59.74
71795;BME280;59641;45.188;5.712;2022-08-19T12:19:04;99316.56;;;24.38;59.83
71795;BME280;59641;45.188;5.712;2022-08-19T12:21:32;99312.59;;;24.44;59.16
71795;BME280;59641;45.188;5.712;2022-08-19T12:23:59;99313.00;;;24.51;59.31
71795;BME280;59641;45.188;5.712;2022-08-19T12:26:26;99315.09;;;24.54;58.07
71795;BME280;59641;45.188;5.712;2022-08-19T12:28:52;99315.91;;;24.55;58.44
71795;BME280;59641;45.188;5.712;2022-08-19T12:31:18;99314.47;;;24.57;57.99
71795;BME280;59641;45.188;5.712;2022-08-19T12:33:45;99327.66;;;24.55;57.79
71795;BME280;59641;45.188;5.712;2022-08-19T12:36:13;99328.81;;;24.54;57.94
71795;BME280;59641;45.188;5.712;2022-08-19T12:38:39;99325.88;;;24.51;57.93
71795;BME280;59641;45.188;5.712;2022-08-19T12:41:06;99326.81;;;24.46;58.44
71795;BME280;59641;45.188;5.712;2022-08-19T12:43:33;99330.78;;;24.40;58.44
71795;BME280;59641;45.188;5.712;2022-08-19T12:46:00;99324.28;;;24.36;59.26
71795;BME280;59641;45.188;5.712;2022-08-19T12:48:25;99334.28;;;24.32;59.45
71795;BME280;59641;45.188;5.712;2022-08-19T12:50:51;99329.41;;;24.29;60.02
71795;BME280;59641;45.188;5.712;2022-08-19T12:53:16;99334.22;;;24.23;60.22
71795;BME280;59641;45.188;5.712;2022-08-19T12:55:42;99343.53;;;24.22;59.56
71795;BME280;59641;45.188;5.712;2022-08-19T12:58:09;99330.78;;;24.17;60.16
71795;BME280;59641;45.188;5.712;2022-08-19T13:00:34;99345.09;;;24.14;60.44
71795;BME280;59641;45.188;5.712;2022-08-19T13:03:01;99337.75;;;24.01;60.79
71795;BME280;59641;45.188;5.712;2022-08-19T13:05:30;99348.72;;;24.01;60.99
71795;BME280;59641;45.188;5.712;2022-08-19T13:07:57;99358.97;;;23.95;62.47
71795;BME280;59641;45.188;5.712;2022-08-19T13:10:30;99349.88;;;23.86;62.32
71795;BME280;59641;45.188;5.712;2022-08-19T13:12:56;99350.41;;;23.74;63.50
71795;BME280;59641;45.188;5.712;2022-08-19T13:15:24;99356.28;;;23.68;63.54